Weather at Gisenyi Airport

Public forecast

Using degrees Celsius for public forecast. Weather courtesy of forecast.io.

Closest aviation weather report (METAR) to Gisenyi Airport

Report is more than 6 hours old.

Closest report is Goma International Airport, 1.4 nm (2.6 km) WNW.

2024/07/19 14:00 (retrieved 2 days ago)

FZNA 191400Z 22006KT 6000 SCT016 FEW018CB BKN100 24/15 Q1018 NOSIG

Closest aviation forecast (TAF) to Gisenyi Airport

Forecast is more than 12 hours old.

Closest forecast is Goma International Airport, 1.4 nm (2.6 km) WNW.

2024/07/20 12:00 (retrieved 20 hours ago)

TAF FZNA 201100Z 2012/2118 18006KT 5000 HZ SCT018 FEW022CB PROB30 TEMPO 2014/2019 TS BECMG 2020/2022 4000 BR SCT014 FM210900 23010KT SCT016 FEW020CB